createdAt,value
2018-05-01T00:00:26.867Z,937.10
2018-05-01T00:01:26.910Z,937.06
2018-05-01T00:02:26.907Z,937.14
2018-05-01T00:03:26.949Z,937.08
2018-05-01T00:04:27.064Z,937.15
2018-05-01T00:05:26.964Z,937.16
2018-05-01T00:06:26.974Z,937.16
2018-05-01T00:07:26.985Z,937.17
2018-05-01T00:08:27.035Z,937.17
2018-05-01T00:09:27.124Z,937.18
2018-05-01T00:10:27.057Z,937.18
2018-05-01T00:11:27.086Z,937.19
2018-05-01T00:12:27.098Z,937.23
2018-05-01T00:13:27.089Z,937.23
2018-05-01T00:14:27.210Z,937.25
2018-05-01T00:15:27.127Z,937.25
2018-05-01T00:16:27.145Z,937.24
2018-05-01T00:17:27.171Z,937.24
2018-05-01T00:18:27.191Z,937.26
2018-05-01T00:19:27.321Z,937.25
2018-05-01T00:20:27.223Z,937.26
2018-05-01T00:21:27.229Z,937.27
2018-05-01T00:22:27.246Z,937.31
2018-05-01T00:23:27.269Z,937.27
2018-05-01T00:24:27.406Z,937.26
2018-05-01T00:25:27.328Z,937.28
2018-05-01T00:26:27.319Z,937.24
2018-05-01T00:27:27.328Z,937.26
2018-05-01T00:28:27.355Z,937.29
2018-05-01T00:29:27.492Z,937.24
2018-05-01T00:30:27.377Z,937.24
2018-05-01T00:31:27.394Z,937.27
2018-05-01T00:32:27.444Z,937.26
2018-05-01T00:33:27.428Z,937.24
2018-05-01T00:34:27.588Z,937.25
2018-05-01T00:35:27.489Z,937.27
2018-05-01T00:36:27.482Z,937.26
2018-05-01T00:37:27.521Z,937.27
2018-05-01T00:38:27.517Z,937.24
2018-05-01T00:39:27.682Z,937.24
2018-05-01T00:40:27.553Z,937.25
2018-05-01T00:41:27.591Z,937.26
2018-05-01T00:42:27.607Z,937.24
2018-05-01T00:43:27.624Z,937.25
2018-05-01T00:44:27.757Z,937.21
2018-05-01T00:45:27.628Z,937.25
2018-05-01T00:46:27.647Z,937.27
2018-05-01T00:47:27.695Z,937.26
2018-05-01T00:48:27.711Z,937.27
2018-05-01T00:49:27.935Z,937.27
2018-05-01T00:50:27.710Z,937.24
2018-05-01T00:51:27.801Z,937.29
2018-05-01T00:52:27.775Z,937.24
2018-05-01T00:53:27.761Z,937.26
2018-05-01T00:54:27.917Z,937.25
2018-05-01T00:55:27.830Z,937.28
2018-05-01T00:56:27.823Z,937.26
2018-05-01T00:57:27.856Z,937.25
2018-05-01T00:58:27.846Z,937.25
2018-05-01T00:59:28.036Z,937.25
2018-05-01T01:00:27.881Z,937.23
2018-05-01T01:01:27.905Z,937.25
2018-05-01T01:02:27.944Z,937.25
2018-05-01T01:03:27.928Z,937.27
2018-05-01T01:04:28.111Z,937.29
2018-05-01T01:05:27.989Z,937.27
2018-05-01T01:06:27.976Z,937.27
2018-05-01T01:07:27.993Z,937.29
2018-05-01T01:08:28.005Z,937.31
2018-05-01T01:09:28.193Z,937.30
2018-05-01T01:10:28.047Z,937.26
2018-05-01T01:11:28.061Z,937.27
2018-05-01T01:12:28.091Z,937.28
2018-05-01T01:13:28.096Z,937.29
2018-05-01T01:14:28.371Z,937.28
2018-05-01T01:15:28.136Z,937.29
2018-05-01T01:16:28.139Z,937.26
2018-05-01T01:17:28.163Z,937.26
2018-05-01T01:18:28.172Z,937.30
2018-05-01T01:19:28.373Z,937.27
2018-05-01T01:20:28.232Z,937.27
2018-05-01T01:21:28.253Z,937.26
2018-05-01T01:22:28.238Z,937.26
2018-05-01T01:23:28.260Z,937.28
2018-05-01T01:24:28.377Z,937.28
2018-05-01T01:25:28.311Z,937.31
2018-05-01T01:26:28.325Z,937.33
2018-05-01T01:27:28.349Z,937.31
2018-05-01T01:28:28.339Z,937.33
2018-05-01T01:29:28.481Z,937.34
2018-05-01T01:30:28.362Z,937.33
2018-05-01T01:31:28.385Z,937.32
2018-05-01T01:32:28.406Z,937.33
2018-05-01T01:33:28.444Z,937.33
2018-05-01T01:34:28.592Z,937.36
2018-05-01T01:35:28.477Z,937.38
2018-05-01T01:36:28.467Z,937.39
2018-05-01T01:37:28.487Z,937.38
2018-05-01T01:38:28.521Z,937.35
2018-05-01T01:39:28.706Z,937.37
2018-05-01T01:40:28.528Z,937.37
2018-05-01T01:41:28.551Z,937.38
2018-05-01T01:42:28.593Z,937.38
2018-05-01T01:43:28.582Z,937.36
2018-05-01T01:44:28.764Z,937.41
2018-05-01T01:45:28.627Z,937.42
2018-05-01T01:46:28.629Z,937.41
2018-05-01T01:47:28.646Z,937.42
2018-05-01T01:48:28.662Z,937.41
2018-05-01T01:49:28.673Z,937.41
2018-05-01T01:50:28.791Z,937.38
2018-05-01T01:51:28.704Z,937.43
2018-05-01T01:52:28.749Z,937.43
2018-05-01T01:53:28.751Z,937.41
2018-05-01T01:54:28.758Z,937.44
2018-05-01T01:55:28.871Z,937.44
2018-05-01T01:56:28.818Z,937.42
2018-05-01T01:57:28.805Z,937.44
2018-05-01T01:58:28.846Z,937.40
2018-05-01T01:59:28.861Z,937.40
2018-05-01T02:00:28.951Z,937.40
2018-05-01T02:01:28.900Z,937.41
2018-05-01T02:02:28.886Z,937.43
2018-05-01T02:03:28.899Z,937.38
2018-05-01T02:04:28.917Z,937.35
2018-05-01T02:05:29.059Z,937.34
2018-05-01T02:06:28.977Z,937.41
2018-05-01T02:07:28.967Z,937.36
2018-05-01T02:08:28.980Z,937.36
2018-05-01T02:09:29.051Z,937.34
2018-05-01T02:10:29.112Z,937.36
2018-05-01T02:11:29.055Z,937.33
2018-05-01T02:12:29.074Z,937.34
2018-05-01T02:13:29.066Z,937.31
2018-05-01T02:14:29.076Z,937.33
2018-05-01T02:15:29.192Z,937.32
2018-05-01T02:16:29.108Z,937.30
2018-05-01T02:17:29.150Z,937.28
2018-05-01T02:18:29.163Z,937.29
2018-05-01T02:19:29.188Z,937.29
2018-05-01T02:20:29.318Z,937.29
2018-05-01T02:21:29.197Z,937.27
2018-05-01T02:22:29.230Z,937.25
2018-05-01T02:23:29.247Z,937.24
2018-05-01T02:24:29.254Z,937.22
2018-05-01T02:25:29.352Z,937.20
2018-05-01T02:26:29.267Z,937.23
2018-05-01T02:27:29.278Z,937.21
2018-05-01T02:28:29.322Z,937.26
2018-05-01T02:29:29.338Z,937.23
2018-05-01T02:30:29.505Z,937.25
2018-05-01T02:31:29.346Z,937.27
2018-05-01T02:32:29.371Z,937.20
2018-05-01T02:33:29.377Z,937.25
2018-05-01T02:34:29.460Z,937.28
2018-05-01T02:35:29.534Z,937.24
2018-05-01T02:36:29.424Z,937.26
2018-05-01T02:37:29.442Z,937.23
2018-05-01T02:38:29.481Z,937.25
2018-05-01T02:39:29.474Z,937.26
2018-05-01T02:40:29.612Z,937.27
2018-05-01T02:41:29.518Z,937.28
2018-05-01T02:42:29.552Z,937.31
2018-05-01T02:43:29.563Z,937.26
2018-05-01T02:44:29.553Z,937.25
2018-05-01T02:45:29.718Z,937.25
2018-05-01T02:46:29.581Z,937.22
2018-05-01T02:47:29.626Z,937.20
2018-05-01T02:48:29.616Z,937.20
2018-05-01T02:49:29.653Z,937.20
2018-05-01T02:50:29.648Z,937.15
2018-05-01T02:51:29.791Z,937.19
2018-05-01T02:52:29.689Z,937.17
2018-05-01T02:53:29.719Z,937.17
2018-05-01T02:54:29.715Z,937.18
2018-05-01T02:55:29.752Z,937.18
2018-05-01T02:56:29.917Z,937.20
2018-05-01T02:57:29.782Z,937.19
2018-05-01T02:58:29.800Z,937.21
2018-05-01T02:59:29.852Z,937.22
2018-05-01T03:00:29.801Z,937.24
2018-05-01T03:01:29.943Z,937.19
2018-05-01T03:02:29.834Z,937.26
2018-05-01T03:03:29.845Z,937.21
2018-05-01T03:04:29.895Z,937.22
2018-05-01T03:05:29.896Z,937.22
2018-05-01T03:06:30.023Z,937.23
2018-05-01T03:07:29.936Z,937.23
2018-05-01T03:08:29.925Z,937.20
2018-05-01T03:09:29.953Z,937.16
2018-05-01T03:10:29.988Z,937.14
2018-05-01T03:11:30.098Z,937.17
2018-05-01T03:12:29.992Z,937.17
2018-05-01T03:13:30.007Z,937.15
2018-05-01T03:14:30.050Z,937.15
2018-05-01T03:15:30.060Z,937.14
2018-05-01T03:16:30.147Z,937.15
2018-05-01T03:17:30.070Z,937.11
2018-05-01T03:18:30.110Z,937.13
2018-05-01T03:19:30.100Z,937.12
2018-05-01T03:20:30.109Z,937.11
2018-05-01T03:21:30.277Z,937.12
2018-05-01T03:22:30.176Z,937.10
2018-05-01T03:23:30.161Z,937.15
2018-05-01T03:24:30.180Z,937.11
2018-05-01T03:25:30.217Z,937.10
2018-05-01T03:26:30.307Z,937.12
2018-05-01T03:27:30.221Z,937.03
2018-05-01T03:28:30.238Z,937.03
2018-05-01T03:29:30.280Z,937.01
2018-05-01T03:30:30.295Z,937.03
2018-05-01T03:31:30.435Z,937.03
2018-05-01T03:32:30.296Z,936.98
2018-05-01T03:33:30.316Z,937.02
2018-05-01T03:34:30.329Z,937.01
2018-05-01T03:35:30.347Z,936.99
2018-05-01T03:36:30.463Z,936.97
2018-05-01T03:37:30.374Z,936.96
2018-05-01T03:38:30.392Z,936.98
2018-05-01T03:39:30.404Z,936.96
2018-05-01T03:40:30.414Z,936.97
2018-05-01T03:41:30.549Z,936.96
2018-05-01T03:42:30.481Z,936.95
2018-05-01T03:43:30.471Z,936.93
2018-05-01T03:44:30.505Z,936.92
2018-05-01T03:45:30.511Z,936.91
2018-05-01T03:46:30.640Z,936.86
2018-05-01T03:47:30.601Z,936.89
2018-05-01T03:48:30.541Z,936.90
2018-05-01T03:49:30.585Z,936.84
2018-05-01T03:50:30.573Z,936.81
2018-05-01T03:51:30.692Z,936.79
2018-05-01T03:52:30.628Z,936.79
2018-05-01T03:53:30.622Z,936.80
2018-05-01T03:54:30.637Z,936.83
2018-05-01T03:55:30.648Z,936.78
2018-05-01T03:56:30.693Z,936.73
2018-05-01T03:57:30.807Z,936.72
2018-05-01T03:58:30.724Z,936.71
2018-05-01T03:59:30.735Z,936.69
2018-05-01T04:00:30.751Z,936.69
2018-05-01T04:01:30.766Z,936.70
2018-05-01T04:02:30.883Z,936.64
2018-05-01T04:03:30.800Z,936.67
2018-05-01T04:04:30.788Z,936.63
2018-05-01T04:05:30.803Z,936.62
2018-05-01T04:06:30.845Z,936.63
2018-05-01T04:07:30.957Z,936.63
2018-05-01T04:08:30.848Z,936.59
2018-05-01T04:09:30.889Z,936.59
2018-05-01T04:10:30.875Z,936.55
2018-05-01T04:11:30.894Z,936.55
2018-05-01T04:12:31.004Z,936.57
2018-05-01T04:13:30.951Z,936.55
2018-05-01T04:14:30.966Z,936.53
2018-05-01T04:15:30.992Z,936.54
2018-05-01T04:16:30.985Z,936.51
2018-05-01T04:17:31.129Z,936.47
2018-05-01T04:18:31.000Z,936.44
2018-05-01T04:19:31.031Z,936.45
2018-05-01T04:20:31.056Z,936.40
2018-05-01T04:21:31.044Z,936.43
2018-05-01T04:22:31.186Z,936.45
2018-05-01T04:23:31.079Z,936.40
2018-05-01T04:24:31.093Z,936.41
2018-05-01T04:25:31.101Z,936.38
2018-05-01T04:26:31.150Z,936.40
2018-05-01T04:27:31.258Z,936.39
2018-05-01T04:28:31.180Z,936.40
2018-05-01T04:29:31.175Z,936.37
2018-05-01T04:30:31.185Z,936.37
2018-05-01T04:31:31.219Z,936.36
2018-05-01T04:32:31.312Z,936.35
2018-05-01T04:33:31.222Z,936.35
2018-05-01T04:34:31.238Z,936.36
2018-05-01T04:35:31.260Z,936.36
2018-05-01T04:36:31.301Z,936.36
2018-05-01T04:37:31.435Z,936.31
2018-05-01T04:38:31.331Z,936.31
2018-05-01T04:39:31.314Z,936.31
2018-05-01T04:40:31.354Z,936.27
2018-05-01T04:41:31.342Z,936.30
2018-05-01T04:42:31.490Z,936.27
2018-05-01T04:43:31.408Z,936.28
2018-05-01T04:44:31.417Z,936.30
2018-05-01T04:45:31.423Z,936.27
2018-05-01T04:46:31.434Z,936.30
2018-05-01T04:47:31.538Z,936.25
2018-05-01T04:48:31.459Z,936.26
2018-05-01T04:49:31.470Z,936.25
2018-05-01T04:50:31.504Z,936.21
2018-05-01T04:51:31.493Z,936.22
2018-05-01T04:52:31.654Z,936.22
2018-05-01T04:53:31.533Z,936.23
2018-05-01T04:54:31.567Z,936.23
2018-05-01T04:55:31.584Z,936.21
2018-05-01T04:56:31.567Z,936.26
2018-05-01T04:57:31.596Z,936.17
2018-05-01T04:58:31.791Z,936.20
2018-05-01T04:59:31.614Z,936.16
2018-05-01T05:00:31.640Z,936.17
2018-05-01T05:01:31.673Z,936.16
2018-05-01T05:02:31.688Z,936.10
2018-05-01T05:03:31.790Z,936.14
2018-05-01T05:04:31.690Z,936.14
2018-05-01T05:05:31.731Z,936.13
2018-05-01T05:06:31.718Z,936.11
2018-05-01T05:07:31.741Z,936.10
2018-05-01T05:08:31.847Z,936.08
2018-05-01T05:09:31.793Z,936.11
2018-05-01T05:10:31.803Z,936.10
2018-05-01T05:11:31.821Z,936.08
2018-05-01T05:12:31.804Z,936.09
2018-05-01T05:13:31.921Z,936.10
2018-05-01T05:14:31.836Z,936.03
2018-05-01T05:15:31.867Z,936.04
2018-05-01T05:16:31.871Z,936.03
2018-05-01T05:17:31.881Z,936.05
2018-05-01T05:18:31.994Z,936.04
2018-05-01T05:19:31.911Z,935.99
2018-05-01T05:20:31.941Z,935.96
2018-05-01T05:21:31.946Z,936.00
2018-05-01T05:22:31.966Z,936.02
2018-05-01T05:23:32.090Z,935.98
2018-05-01T05:24:31.986Z,936.02
2018-05-01T05:25:32.028Z,935.96
2018-05-01T05:26:32.044Z,935.96
2018-05-01T05:27:32.060Z,935.97
2018-05-01T05:28:32.155Z,935.96
2018-05-01T05:29:32.060Z,935.96
2018-05-01T05:30:32.078Z,935.99
2018-05-01T05:31:32.090Z,935.98
2018-05-01T05:32:32.130Z,935.97
2018-05-01T05:33:32.248Z,935.99
2018-05-01T05:34:32.159Z,935.99
2018-05-01T05:35:32.178Z,936.02
2018-05-01T05:36:32.163Z,936.01
2018-05-01T05:37:32.184Z,936.00
2018-05-01T05:38:32.310Z,935.98
2018-05-01T05:39:32.211Z,935.98
2018-05-01T05:40:32.225Z,935.91
2018-05-01T05:41:32.265Z,935.93
2018-05-01T05:42:32.281Z,935.91
2018-05-01T05:43:32.380Z,935.93
2018-05-01T05:44:32.298Z,935.89
2018-05-01T05:45:32.299Z,935.89
2018-05-01T05:46:32.314Z,935.91
2018-05-01T05:47:32.352Z,935.91
2018-05-01T05:48:32.439Z,935.92
2018-05-01T05:49:32.358Z,935.86
2018-05-01T05:50:32.375Z,935.84
2018-05-01T05:51:32.387Z,935.86
2018-05-01T05:52:32.394Z,935.86
2018-05-01T05:53:32.521Z,935.88
2018-05-01T05:54:32.438Z,935.83
2018-05-01T05:55:32.470Z,935.82
2018-05-01T05:56:32.484Z,935.84
2018-05-01T05:57:32.469Z,935.84
2018-05-01T05:58:32.599Z,935.82
2018-05-01T05:59:32.516Z,935.80
2018-05-01T06:00:32.543Z,935.85
2018-05-01T06:01:32.537Z,935.84
2018-05-01T06:02:32.574Z,935.85
2018-05-01T06:03:32.676Z,935.82
2018-05-01T06:04:32.577Z,935.84
2018-05-01T06:05:32.592Z,935.84
2018-05-01T06:06:32.637Z,935.81
2018-05-01T06:07:32.632Z,935.86
2018-05-01T06:08:32.764Z,935.85
2018-05-01T06:09:32.688Z,935.82
2018-05-01T06:10:32.694Z,935.85
2018-05-01T06:11:32.681Z,935.82
2018-05-01T06:12:32.696Z,935.82
2018-05-01T06:13:32.899Z,935.80
2018-05-01T06:14:32.756Z,935.77
2018-05-01T06:15:32.745Z,935.82
2018-05-01T06:16:32.768Z,935.78
2018-05-01T06:17:32.800Z,935.77
2018-05-01T06:18:32.909Z,935.77
2018-05-01T06:19:32.816Z,935.78
2018-05-01T06:20:32.839Z,935.74
2018-05-01T06:21:32.825Z,935.72
2018-05-01T06:22:32.861Z,935.72
2018-05-01T06:23:32.962Z,935.67
2018-05-01T06:24:32.902Z,935.68
2018-05-01T06:25:32.887Z,935.74
2018-05-01T06:26:32.899Z,935.69
2018-05-01T06:27:32.917Z,935.73
2018-05-01T06:28:33.058Z,935.74
2018-05-01T06:29:32.944Z,935.74
2018-05-01T06:30:32.982Z,935.71
2018-05-01T06:31:32.984Z,935.73
2018-05-01T06:32:32.986Z,935.71
2018-05-01T06:33:33.126Z,935.70
2018-05-01T06:34:33.018Z,935.69
2018-05-01T06:35:33.055Z,935.70
2018-05-01T06:36:33.050Z,935.71
2018-05-01T06:37:33.162Z,935.68
2018-05-01T06:38:33.173Z,935.70
2018-05-01T06:39:33.116Z,935.67
2018-05-01T06:40:33.122Z,935.69
2018-05-01T06:41:33.123Z,935.67
2018-05-01T06:42:33.128Z,935.65
2018-05-01T06:43:33.326Z,935.63
2018-05-01T06:44:33.176Z,935.61
2018-05-01T06:45:33.203Z,935.62
2018-05-01T06:46:33.218Z,935.64
2018-05-01T06:47:33.213Z,935.60
2018-05-01T06:48:33.320Z,935.63
2018-05-01T06:49:33.265Z,935.65
2018-05-01T06:50:33.255Z,935.62
2018-05-01T06:51:33.295Z,935.60
2018-05-01T06:52:33.308Z,935.62
2018-05-01T06:53:33.424Z,935.60
2018-05-01T06:54:33.334Z,935.64
2018-05-01T06:55:33.323Z,935.63
2018-05-01T06:56:33.365Z,935.62
2018-05-01T06:57:33.364Z,935.59
2018-05-01T06:58:33.545Z,935.63
2018-05-01T06:59:33.385Z,935.63
2018-05-01T07:00:33.388Z,935.62
2018-05-01T07:01:33.417Z,935.62
2018-05-01T07:02:33.423Z,935.65
2018-05-01T07:03:33.536Z,935.59
2018-05-01T07:04:33.583Z,935.59
2018-05-01T07:05:33.462Z,935.61
2018-05-01T07:06:33.498Z,935.58
2018-05-01T07:07:33.520Z,935.62
2018-05-01T07:08:33.638Z,935.58
2018-05-01T07:09:33.527Z,935.59
2018-05-01T07:10:33.563Z,935.56
2018-05-01T07:11:33.580Z,935.59
2018-05-01T07:12:33.565Z,935.61
2018-05-01T07:13:33.582Z,935.59
2018-05-01T07:14:33.720Z,935.57
2018-05-01T07:15:33.611Z,935.56
2018-05-01T07:16:33.648Z,935.59
2018-05-01T07:17:33.637Z,935.60
2018-05-01T07:18:33.678Z,935.58
2018-05-01T07:19:33.762Z,935.59
2018-05-01T07:20:33.709Z,935.60
2018-05-01T07:21:33.720Z,935.60
2018-05-01T07:22:33.734Z,935.60
2018-05-01T07:23:33.723Z,935.56
2018-05-01T07:24:33.836Z,935.58
2018-05-01T07:25:33.755Z,935.59
2018-05-01T07:26:33.773Z,935.57
2018-05-01T07:27:33.782Z,935.57
2018-05-01T07:28:33.798Z,935.59
2018-05-01T07:29:33.924Z,935.58
2018-05-01T07:30:33.833Z,935.64
2018-05-01T07:31:33.835Z,935.62
2018-05-01T07:32:33.854Z,935.64
2018-05-01T07:33:33.890Z,935.66
2018-05-01T07:34:33.975Z,935.66
2018-05-01T07:35:33.959Z,935.67
2018-05-01T07:36:33.931Z,935.68
2018-05-01T07:37:33.943Z,935.67
2018-05-01T07:38:33.940Z,935.70
2018-05-01T07:39:34.054Z,935.70
2018-05-01T07:40:33.986Z,935.72
2018-05-01T07:41:34.008Z,935.71
2018-05-01T07:42:34.018Z,935.67
2018-05-01T07:43:34.003Z,935.67
2018-05-01T07:44:34.129Z,935.67
2018-05-01T07:45:34.059Z,935.70
2018-05-01T07:46:34.070Z,935.70
2018-05-01T07:47:34.063Z,935.68
2018-05-01T07:48:34.072Z,935.70
2018-05-01T07:49:34.187Z,935.74
2018-05-01T07:50:34.110Z,935.73
2018-05-01T07:51:34.141Z,935.72
2018-05-01T07:52:34.132Z,935.71
2018-05-01T07:53:34.172Z,935.70
2018-05-01T07:54:34.257Z,935.72
2018-05-01T07:55:34.175Z,935.74
2018-05-01T07:56:34.188Z,935.75
2018-05-01T07:57:34.203Z,935.77
2018-05-01T07:58:34.222Z,935.76
2018-05-01T07:59:34.327Z,935.82
2018-05-01T08:00:34.245Z,935.78
2018-05-01T08:01:34.289Z,935.81
2018-05-01T08:02:34.309Z,935.84
2018-05-01T08:03:34.290Z,935.85
2018-05-01T08:04:34.427Z,935.83
2018-05-01T08:05:34.318Z,935.87
2018-05-01T08:06:34.351Z,935.84
2018-05-01T08:07:34.349Z,935.86
2018-05-01T08:08:34.382Z,935.92
2018-05-01T08:09:34.496Z,935.89
2018-05-01T08:10:34.384Z,935.93
2018-05-01T08:11:34.401Z,935.93
2018-05-01T08:12:34.438Z,935.95
2018-05-01T08:13:34.426Z,935.95
2018-05-01T08:14:34.548Z,935.95
2018-05-01T08:15:34.470Z,935.96
2018-05-01T08:16:34.498Z,936.00
2018-05-01T08:17:34.495Z,935.96
2018-05-01T08:18:34.525Z,936.00
2018-05-01T08:19:34.636Z,935.98
2018-05-01T08:20:34.552Z,936.05
2018-05-01T08:21:34.536Z,936.07
2018-05-01T08:22:34.557Z,936.06
2018-05-01T08:23:34.593Z,936.08
2018-05-01T08:24:34.584Z,936.10
2018-05-01T08:25:34.715Z,936.11
2018-05-01T08:26:34.637Z,936.12
2018-05-01T08:27:34.631Z,936.13
2018-05-01T08:28:34.650Z,936.13
2018-05-01T08:29:34.656Z,936.18
2018-05-01T08:30:34.863Z,936.15
2018-05-01T08:31:34.682Z,936.18
2018-05-01T08:32:34.695Z,936.19
2018-05-01T08:33:34.738Z,936.20
2018-05-01T08:34:34.753Z,936.22
2018-05-01T08:35:34.841Z,936.25
2018-05-01T08:36:34.784Z,936.22
2018-05-01T08:37:34.795Z,936.20
2018-05-01T08:38:34.779Z,936.28
2018-05-01T08:39:34.798Z,936.26
2018-05-01T08:40:34.908Z,936.26
2018-05-01T08:41:34.847Z,936.28
2018-05-01T08:42:34.840Z,936.23
2018-05-01T08:43:34.875Z,936.28
2018-05-01T08:44:34.863Z,936.29
2018-05-01T08:45:34.976Z,936.29
2018-05-01T08:46:34.920Z,936.34
2018-05-01T08:47:34.938Z,936.37
2018-05-01T08:48:34.920Z,936.36
2018-05-01T08:49:34.936Z,936.38
2018-05-01T08:50:35.075Z,936.37
2018-05-01T08:51:34.971Z,936.41
2018-05-01T08:52:34.985Z,936.41
2018-05-01T08:53:35.002Z,936.47
2018-05-01T08:54:35.004Z,936.47
2018-05-01T08:55:35.115Z,936.40
2018-05-01T08:56:35.047Z,936.48
2018-05-01T08:57:35.053Z,936.46
2018-05-01T08:58:35.086Z,936.52
2018-05-01T08:59:35.099Z,936.49
2018-05-01T09:00:35.187Z,936.51
2018-05-01T09:01:35.100Z,936.53
2018-05-01T09:02:35.118Z,936.53
2018-05-01T09:03:35.127Z,936.53
2018-05-01T09:04:35.141Z,936.56
2018-05-01T09:05:35.307Z,936.57
2018-05-01T09:06:35.195Z,936.60
2018-05-01T09:07:35.187Z,936.58
2018-05-01T09:08:35.230Z,936.61
2018-05-01T09:09:35.243Z,936.63
2018-05-01T09:10:35.328Z,936.61
2018-05-01T09:11:35.267Z,936.63
2018-05-01T09:12:35.279Z,936.65
2018-05-01T09:13:35.298Z,936.67
2018-05-01T09:14:35.285Z,936.68
2018-05-01T09:15:35.474Z,936.72
2018-05-01T09:16:35.333Z,936.71
2018-05-01T09:17:35.421Z,936.77
2018-05-01T09:18:35.337Z,936.76
2018-05-01T09:19:35.363Z,936.78
2018-05-01T09:20:35.493Z,936.78
2018-05-01T09:21:35.393Z,936.81
2018-05-01T09:22:35.393Z,936.79
2018-05-01T09:23:35.415Z,936.82
2018-05-01T09:24:35.445Z,936.80
2018-05-01T09:25:35.623Z,936.83
2018-05-01T09:26:35.487Z,936.84
2018-05-01T09:27:35.465Z,936.88
2018-05-01T09:28:35.476Z,936.91
2018-05-01T09:29:35.497Z,936.94
2018-05-01T09:30:35.606Z,936.90
2018-05-01T09:31:35.517Z,936.96
2018-05-01T09:32:35.542Z,936.95
2018-05-01T09:33:35.570Z,936.99
2018-05-01T09:34:35.558Z,936.99
2018-05-01T09:35:35.701Z,937.02
2018-05-01T09:36:35.613Z,937.02
2018-05-01T09:37:35.616Z,937.04
2018-05-01T09:38:35.613Z,937.11
2018-05-01T09:39:35.628Z,937.12
2018-05-01T09:40:35.757Z,937.14
2018-05-01T09:41:35.682Z,937.13
2018-05-01T09:42:35.696Z,937.17
2018-05-01T09:43:35.691Z,937.19
2018-05-01T09:44:35.701Z,937.19
2018-05-01T09:45:35.842Z,937.17
2018-05-01T09:46:35.726Z,937.21
2018-05-01T09:47:35.780Z,937.24
2018-05-01T09:48:35.765Z,937.25
2018-05-01T09:49:35.774Z,937.25
2018-05-01T09:50:35.907Z,937.20
2018-05-01T09:51:35.821Z,937.27
2018-05-01T09:52:35.822Z,937.28
2018-05-01T09:53:35.826Z,937.29
2018-05-01T09:54:35.845Z,937.30
2018-05-01T09:55:35.980Z,937.33
2018-05-01T09:56:35.867Z,937.31
2018-05-01T09:57:35.908Z,937.34
2018-05-01T09:58:35.923Z,937.38
2018-05-01T09:59:35.934Z,937.37
2018-05-01T10:00:36.053Z,937.42
2018-05-01T10:01:35.939Z,937.44
2018-05-01T10:02:35.965Z,937.42
2018-05-01T10:03:35.967Z,937.45
2018-05-01T10:04:36.005Z,937.46
2018-05-01T10:05:36.105Z,937.49
2018-05-01T10:06:36.008Z,937.49
2018-05-01T10:07:36.051Z,937.50
2018-05-01T10:08:36.056Z,937.50
2018-05-01T10:09:36.067Z,937.54
2018-05-01T10:10:36.193Z,937.59
2018-05-01T10:11:36.081Z,937.59
2018-05-01T10:12:36.117Z,937.64
2018-05-01T10:13:36.121Z,937.60
2018-05-01T10:14:36.169Z,937.68
2018-05-01T10:15:36.238Z,937.67
2018-05-01T10:16:36.151Z,937.72
2018-05-01T10:17:36.233Z,937.71
2018-05-01T10:18:36.193Z,937.73
2018-05-01T10:19:36.204Z,937.72
2018-05-01T10:20:36.329Z,937.76
2018-05-01T10:21:36.225Z,937.75
2018-05-01T10:22:36.241Z,937.76
2018-05-01T10:23:36.267Z,937.76
2018-05-01T10:24:36.277Z,937.77
2018-05-01T10:25:36.394Z,937.78
2018-05-01T10:26:36.305Z,937.78
2018-05-01T10:27:36.330Z,937.80
2018-05-01T10:28:36.413Z,937.80
2018-05-01T10:29:36.353Z,937.78
2018-05-01T10:30:36.485Z,937.82
2018-05-01T10:31:36.382Z,937.84
2018-05-01T10:32:36.389Z,937.86
2018-05-01T10:33:36.408Z,937.87
2018-05-01T10:34:36.450Z,937.88
2018-05-01T10:35:36.535Z,937.95
2018-05-01T10:36:36.454Z,937.91
2018-05-01T10:37:36.469Z,937.99
2018-05-01T10:38:36.544Z,937.98
2018-05-01T10:39:36.512Z,937.99
2018-05-01T10:40:36.537Z,938.02
2018-05-01T10:41:36.653Z,938.02
2018-05-01T10:42:36.572Z,938.01
2018-05-01T10:43:36.570Z,938.02
2018-05-01T10:44:36.573Z,938.03
2018-05-01T10:45:36.619Z,938.05
2018-05-01T10:46:36.720Z,938.04
2018-05-01T10:47:36.626Z,938.08
2018-05-01T10:48:36.650Z,938.14
2018-05-01T10:49:36.680Z,938.11
2018-05-01T10:50:36.672Z,938.17
2018-05-01T10:51:36.813Z,938.20
2018-05-01T10:52:36.702Z,938.18
2018-05-01T10:53:36.731Z,938.16
2018-05-01T10:54:36.821Z,938.20
2018-05-01T10:55:36.778Z,938.19
2018-05-01T10:56:36.869Z,938.20
2018-05-01T10:57:36.784Z,938.27
2018-05-01T10:58:36.803Z,938.24
2018-05-01T10:59:36.827Z,938.32
2018-05-01T11:00:36.907Z,938.32
2018-05-01T11:01:36.956Z,938.35
2018-05-01T11:02:36.870Z,938.35
2018-05-01T11:03:36.882Z,938.36
2018-05-01T11:04:36.913Z,938.38
2018-05-01T11:05:36.924Z,938.40
2018-05-01T11:06:37.052Z,938.39
2018-05-01T11:07:36.961Z,938.42
2018-05-01T11:08:36.979Z,938.46
2018-05-01T11:09:36.992Z,938.44
2018-05-01T11:10:37.011Z,938.50
2018-05-01T11:11:37.128Z,938.52
2018-05-01T11:12:37.048Z,938.52
2018-05-01T11:13:37.090Z,938.57
2018-05-01T11:14:37.104Z,938.56
2018-05-01T11:15:37.121Z,938.53
2018-05-01T11:16:37.220Z,938.58
2018-05-01T11:17:37.132Z,938.59
2018-05-01T11:18:37.161Z,938.57
2018-05-01T11:19:37.178Z,938.61
2018-05-01T11:20:37.208Z,938.62
2018-05-01T11:21:37.332Z,938.62
2018-05-01T11:22:37.235Z,938.63
2018-05-01T11:23:37.266Z,938.65
2018-05-01T11:24:37.280Z,938.71
2018-05-01T11:25:37.287Z,938.67
2018-05-01T11:26:37.419Z,938.70
2018-05-01T11:27:37.311Z,938.70
2018-05-01T11:28:37.431Z,938.72
2018-05-01T11:29:37.344Z,938.70
2018-05-01T11:30:37.369Z,938.71
2018-05-01T11:31:37.550Z,938.73
2018-05-01T11:32:37.407Z,938.71
2018-05-01T11:33:37.486Z,938.73
2018-05-01T11:34:37.467Z,938.72
2018-05-01T11:35:37.454Z,938.76
2018-05-01T11:36:37.481Z,938.75
2018-05-01T11:37:37.672Z,938.73
2018-05-01T11:38:37.541Z,938.71
2018-05-01T11:39:37.542Z,938.71
2018-05-01T11:40:37.586Z,938.73
2018-05-01T11:41:37.575Z,938.77
2018-05-01T11:42:37.722Z,938.79
2018-05-01T11:43:37.616Z,938.80
2018-05-01T11:44:37.630Z,938.82
2018-05-01T11:45:37.676Z,938.84
2018-05-01T11:46:37.680Z,938.81
2018-05-01T11:47:37.804Z,938.89
2018-05-01T11:48:37.715Z,938.95
2018-05-01T11:49:37.756Z,938.91
2018-05-01T11:50:37.748Z,938.93
2018-05-01T11:51:37.795Z,938.97
2018-05-01T11:52:37.885Z,939.00
2018-05-01T11:53:37.817Z,938.99
2018-05-01T11:54:37.836Z,939.01
2018-05-01T11:55:37.848Z,939.03
2018-05-01T11:56:37.859Z,939.07
2018-05-01T11:57:38.013Z,939.08
2018-05-01T11:58:37.934Z,939.11
2018-05-01T11:59:37.928Z,939.13
2018-05-01T12:00:37.973Z,939.17
2018-05-01T12:01:37.989Z,939.17
2018-05-01T12:02:38.168Z,939.19
2018-05-01T12:03:38.006Z,939.20
2018-05-01T12:04:38.024Z,939.20
2018-05-01T12:05:38.048Z,939.19
2018-05-01T12:06:38.078Z,939.18
2018-05-01T12:07:38.217Z,939.19
2018-05-01T12:08:38.131Z,939.18
2018-05-01T12:09:38.154Z,939.18
2018-05-01T12:10:38.257Z,939.18
2018-05-01T12:11:38.183Z,939.22
2018-05-01T12:12:38.320Z,939.21
2018-05-01T12:13:38.211Z,939.26
2018-05-01T12:14:38.228Z,939.27
2018-05-01T12:15:38.264Z,939.25
2018-05-01T12:16:38.301Z,939.26
2018-05-01T12:17:38.422Z,939.23
2018-05-01T12:18:38.399Z,939.19
2018-05-01T12:19:38.335Z,939.21
2018-05-01T12:20:38.381Z,939.22
2018-05-01T12:21:38.406Z,939.26
2018-05-01T12:22:38.521Z,939.27
2018-05-01T12:23:38.453Z,939.21
2018-05-01T12:24:38.439Z,939.26
2018-05-01T12:25:38.487Z,939.22
2018-05-01T12:26:38.509Z,939.25
2018-05-01T12:27:38.602Z,939.24
2018-05-01T12:28:38.525Z,939.25